createdAt,value
2023-02-07T00:01:18.640Z,72.61
2023-02-07T00:03:49.235Z,72.43
2023-02-07T00:06:19.552Z,72.14
2023-02-07T00:08:52.244Z,72.66
2023-02-07T00:11:23.310Z,73.00
2023-02-07T00:13:55.542Z,72.65
2023-02-07T00:16:26.392Z,72.20
2023-02-07T00:18:58.373Z,72.59
2023-02-07T00:21:30.121Z,72.61
2023-02-07T00:24:00.812Z,72.68
2023-02-07T00:26:30.510Z,72.67
2023-02-07T00:28:59.983Z,72.43
2023-02-07T00:31:31.867Z,72.00
2023-02-07T00:34:04.224Z,72.41
2023-02-07T00:36:35.081Z,72.48
2023-02-07T00:39:08.046Z,72.22
2023-02-07T00:41:37.820Z,72.44
2023-02-07T00:44:07.355Z,72.47
2023-02-07T00:46:37.587Z,72.32
2023-02-07T00:49:07.631Z,72.49
2023-02-07T00:51:37.540Z,73.00
2023-02-07T00:54:08.575Z,73.31
2023-02-07T00:56:38.265Z,73.25
2023-02-07T00:59:07.885Z,73.10
2023-02-07T01:01:37.997Z,72.80
2023-02-07T01:04:07.496Z,72.57
2023-02-07T01:06:37.183Z,72.54
2023-02-07T01:09:08.937Z,72.51
2023-02-07T01:11:38.964Z,72.92
2023-02-07T01:14:08.257Z,73.12
2023-02-07T01:16:38.750Z,73.29
2023-02-07T01:19:09.797Z,73.42
2023-02-07T01:21:39.336Z,73.17
2023-02-07T01:24:10.766Z,73.09
2023-02-07T01:26:41.225Z,73.08
2023-02-07T01:29:11.915Z,73.33
2023-02-07T01:31:42.265Z,73.32
2023-02-07T01:34:14.334Z,73.07
2023-02-07T01:36:43.815Z,73.10
2023-02-07T01:39:16.203Z,72.82
2023-02-07T01:41:45.597Z,72.35
2023-02-07T01:44:48.080Z,72.37
2023-02-07T01:47:20.585Z,72.49
2023-02-07T01:49:52.468Z,72.52
2023-02-07T01:52:27.050Z,72.62
2023-02-07T01:55:04.088Z,72.89
2023-02-07T01:57:34.312Z,73.22
2023-02-07T02:00:04.175Z,73.02
2023-02-07T02:02:45.182Z,73.47
2023-02-07T02:05:17.280Z,73.25
2023-02-07T02:07:46.886Z,73.24
2023-02-07T02:10:20.693Z,73.43
2023-02-07T02:13:13.000Z,73.16
2023-02-07T02:15:49.252Z,73.33
2023-02-07T02:18:53.291Z,73.58
2023-02-07T02:22:01.695Z,73.13
2023-02-07T02:25:21.907Z,73.10
2023-02-07T02:28:02.838Z,72.90
2023-02-07T02:30:54.786Z,73.00
2023-02-07T02:33:38.813Z,73.15
2023-02-07T02:36:16.399Z,73.03
2023-02-07T02:38:53.508Z,72.89
2023-02-07T02:41:29.048Z,72.86
2023-02-07T02:44:04.261Z,72.94
2023-02-07T02:46:38.489Z,72.79
2023-02-07T02:49:11.547Z,72.93
2023-02-07T02:51:41.048Z,73.16
2023-02-07T02:54:29.296Z,73.26
2023-02-07T02:57:31.996Z,73.67
2023-02-07T03:00:27.298Z,73.12
2023-02-07T03:03:19.157Z,73.17
2023-02-07T03:05:59.942Z,72.89
2023-02-07T03:08:40.314Z,72.96
2023-02-07T03:11:12.939Z,72.90
2023-02-07T03:13:55.022Z,72.79
2023-02-07T03:16:26.074Z,72.88
2023-02-07T03:19:01.675Z,72.96
2023-02-07T03:21:37.299Z,73.02
2023-02-07T03:24:12.982Z,72.83
2023-02-07T03:26:45.801Z,72.78
2023-02-07T03:29:17.747Z,72.92
2023-02-07T03:31:49.780Z,72.92
2023-02-07T03:34:23.826Z,73.12
2023-02-07T03:36:59.848Z,73.29
2023-02-07T03:39:29.928Z,73.22
2023-02-07T03:42:02.179Z,72.90
2023-02-07T03:44:34.756Z,72.66
2023-02-07T03:47:05.406Z,72.51
2023-02-07T03:49:34.855Z,72.45
2023-02-07T03:52:05.556Z,72.78
2023-02-07T03:54:35.056Z,72.95
2023-02-07T03:57:04.242Z,72.93
2023-02-07T03:59:33.939Z,72.76
2023-02-07T04:02:03.304Z,72.86
2023-02-07T04:04:33.058Z,73.00
2023-02-07T04:07:02.350Z,72.54
2023-02-07T04:09:33.286Z,73.00
2023-02-07T04:12:02.605Z,72.70
2023-02-07T04:14:32.146Z,73.06
2023-02-07T04:17:01.580Z,72.91
2023-02-07T04:19:30.929Z,73.03
2023-02-07T04:22:00.140Z,73.24
2023-02-07T04:24:31.884Z,73.29
2023-02-07T04:27:02.442Z,73.27
2023-02-07T04:29:31.969Z,73.16
2023-02-07T04:32:01.204Z,72.91
2023-02-07T04:34:30.912Z,72.59
2023-02-07T04:37:00.118Z,72.41
2023-02-07T04:39:29.641Z,72.14
2023-02-07T04:41:58.783Z,72.03
2023-02-07T04:44:29.620Z,71.80
2023-02-07T04:46:58.812Z,71.74
2023-02-07T04:49:28.223Z,71.72
2023-02-07T04:51:57.398Z,71.46
2023-02-07T04:54:26.868Z,71.40
2023-02-07T04:56:56.160Z,71.54
2023-02-07T04:59:25.542Z,71.61
2023-02-07T05:01:56.080Z,71.50
2023-02-07T05:04:25.658Z,71.46
2023-02-07T05:06:54.732Z,71.37
2023-02-07T05:09:24.091Z,71.65
2023-02-07T05:11:53.273Z,71.39
2023-02-07T05:14:22.621Z,71.48
2023-02-07T05:16:52.109Z,71.32
2023-02-07T05:19:23.186Z,71.39
2023-02-07T05:21:52.378Z,71.39
2023-02-07T05:24:21.962Z,71.10
2023-02-07T05:26:51.227Z,71.32
2023-02-07T05:29:20.612Z,71.04
2023-02-07T05:32:07.045Z,71.20
2023-02-07T05:34:38.352Z,71.16
2023-02-07T05:37:07.551Z,71.17
2023-02-07T05:39:36.890Z,71.26
2023-02-07T05:42:06.205Z,71.02
2023-02-07T05:44:35.588Z,71.09
2023-02-07T05:47:04.853Z,71.18
2023-02-07T05:49:34.293Z,71.12
2023-02-07T05:52:04.975Z,71.08
2023-02-07T05:54:34.412Z,71.19
2023-02-07T05:57:03.564Z,70.98
2023-02-07T05:59:32.985Z,71.05
2023-02-07T06:02:02.209Z,70.80
2023-02-07T06:04:31.579Z,70.94
2023-02-07T06:07:00.661Z,70.94
2023-02-07T06:09:31.626Z,70.81
2023-02-07T06:12:00.753Z,71.02
2023-02-07T06:14:30.142Z,70.89
2023-02-07T06:16:59.719Z,70.81
2023-02-07T06:19:29.193Z,71.14
2023-02-07T06:21:58.360Z,70.81
2023-02-07T06:24:27.767Z,70.67
2023-02-07T06:26:59.294Z,70.84
2023-02-07T06:29:28.718Z,70.83
2023-02-07T06:31:57.947Z,70.83
2023-02-07T06:34:27.295Z,71.05
2023-02-07T06:36:56.500Z,70.72
2023-02-07T06:39:26.134Z,70.97
2023-02-07T06:41:55.292Z,70.78
2023-02-07T06:44:26.109Z,70.74
2023-02-07T06:46:55.247Z,70.53
2023-02-07T06:49:24.785Z,70.71
2023-02-07T06:51:53.989Z,70.72
2023-02-07T06:54:23.522Z,70.72
2023-02-07T06:56:52.973Z,70.55
2023-02-07T06:59:22.412Z,70.74
2023-02-07T07:01:52.867Z,70.66
2023-02-07T07:04:22.418Z,70.58
2023-02-07T07:06:51.635Z,70.62
2023-02-07T07:09:21.159Z,70.65
2023-02-07T07:11:50.226Z,70.76
2023-02-07T07:14:20.190Z,70.95
2023-02-07T07:16:49.505Z,70.69
2023-02-07T07:19:20.418Z,70.69
2023-02-07T07:21:49.602Z,70.69
2023-02-07T07:24:19.366Z,70.74
2023-02-07T07:26:50.157Z,70.84
2023-02-07T07:29:20.972Z,70.76
2023-02-07T07:31:50.309Z,70.75
2023-02-07T07:34:21.145Z,70.77
2023-02-07T07:36:50.854Z,70.84
2023-02-07T07:39:21.075Z,70.79
2023-02-07T07:41:50.022Z,70.87
2023-02-07T07:44:37.676Z,70.92
2023-02-07T07:47:08.643Z,70.88
2023-02-07T07:49:39.453Z,70.98
2023-02-07T07:52:08.802Z,71.10
2023-02-07T07:54:38.406Z,71.27
2023-02-07T07:57:07.596Z,71.32
2023-02-07T07:59:36.939Z,71.19
2023-02-07T08:02:06.189Z,71.38
2023-02-07T08:04:35.909Z,71.58
2023-02-07T08:07:06.367Z,71.70
2023-02-07T08:09:36.246Z,71.84
2023-02-07T08:12:06.008Z,72.04
2023-02-07T08:14:35.770Z,72.30
2023-02-07T08:17:04.870Z,72.44
2023-02-07T08:19:34.594Z,72.62
2023-02-07T08:22:05.677Z,72.73
2023-02-07T08:24:36.036Z,72.96
2023-02-07T08:27:05.728Z,72.78
2023-02-07T08:29:35.287Z,72.78
2023-02-07T08:32:05.556Z,72.93
2023-02-07T08:34:37.653Z,73.67
2023-02-07T08:37:09.648Z,73.38
2023-02-07T08:39:39.181Z,73.53
2023-02-07T08:42:09.842Z,73.70
2023-02-07T08:44:39.688Z,73.72
2023-02-07T08:47:08.712Z,74.35
2023-02-07T08:49:38.442Z,75.08
2023-02-07T08:52:09.450Z,74.74
2023-02-07T08:54:39.375Z,76.54
2023-02-07T08:57:08.591Z,75.81
2023-02-07T08:59:37.914Z,76.57
2023-02-07T09:02:07.087Z,76.59
2023-02-07T09:04:37.554Z,76.19
2023-02-07T09:07:08.197Z,76.23
2023-02-07T09:09:37.837Z,76.09
2023-02-07T09:12:07.625Z,75.70
2023-02-07T09:14:36.940Z,76.46
2023-02-07T09:17:06.510Z,76.44
2023-02-07T09:19:37.598Z,76.21
2023-02-07T09:22:08.369Z,76.01
2023-02-07T09:24:38.112Z,75.86
2023-02-07T09:27:07.320Z,75.71
2023-02-07T09:29:37.099Z,75.58
2023-02-07T09:32:06.477Z,75.86
2023-02-07T09:34:36.346Z,75.53
2023-02-07T09:37:05.810Z,75.45
2023-02-07T09:39:39.223Z,75.27
2023-02-07T09:42:24.778Z,75.02
2023-02-07T09:45:01.543Z,75.10
2023-02-07T09:47:31.198Z,75.15
2023-02-07T09:50:04.740Z,74.92
2023-02-07T09:52:41.183Z,74.79
2023-02-07T09:55:22.178Z,74.91
2023-02-07T09:57:56.472Z,75.26
2023-02-07T10:00:28.229Z,75.51
2023-02-07T10:03:04.727Z,75.01
2023-02-07T10:05:43.203Z,74.27
2023-02-07T10:08:15.943Z,74.58
2023-02-07T10:10:51.927Z,74.67
2023-02-07T10:13:45.213Z,74.21
2023-02-07T10:16:30.641Z,74.67
2023-02-07T10:19:09.738Z,74.90
2023-02-07T10:21:50.492Z,74.65
2023-02-07T10:24:39.858Z,74.07
2023-02-07T10:27:13.646Z,73.53
2023-02-07T10:29:57.969Z,73.42
2023-02-07T10:32:32.207Z,73.36
2023-02-07T10:35:06.918Z,73.10
2023-02-07T10:37:40.219Z,72.19
2023-02-07T10:40:16.910Z,72.48
2023-02-07T10:42:54.163Z,72.63
2023-02-07T10:45:23.489Z,71.98
2023-02-07T10:47:53.048Z,71.70
2023-02-07T10:50:30.218Z,72.43
2023-02-07T10:53:00.848Z,71.33
2023-02-07T10:55:43.142Z,71.61
2023-02-07T10:58:23.237Z,71.58
2023-02-07T11:00:54.964Z,71.79
2023-02-07T11:03:27.055Z,70.75
2023-02-07T11:05:58.740Z,71.30
2023-02-07T11:08:29.694Z,71.27
2023-02-07T11:11:01.039Z,71.77
2023-02-07T11:13:33.508Z,71.36
2023-02-07T11:16:07.175Z,71.55
2023-02-07T11:18:45.460Z,71.00
2023-02-07T11:21:28.973Z,71.28
2023-02-07T11:24:02.446Z,71.45
2023-02-07T11:26:35.793Z,71.38
2023-02-07T11:29:14.939Z,71.49
2023-02-07T11:31:46.294Z,71.91
2023-02-07T11:34:48.196Z,71.57
2023-02-07T11:37:26.055Z,71.77
2023-02-07T11:39:57.511Z,71.70
2023-02-07T11:42:31.874Z,71.02
2023-02-07T11:45:06.546Z,71.11
2023-02-07T11:47:40.142Z,71.43
2023-02-07T11:50:21.796Z,71.06
2023-02-07T11:52:52.237Z,70.86
2023-02-07T11:55:26.287Z,71.37
2023-02-07T11:57:58.580Z,71.21
2023-02-07T12:00:30.636Z,71.34
2023-02-07T12:03:05.824Z,71.13
2023-02-07T12:05:39.743Z,71.19
2023-02-07T12:08:17.052Z,71.22
2023-02-07T12:10:49.908Z,71.28
2023-02-07T12:13:22.771Z,71.29
2023-02-07T12:15:57.538Z,71.43
2023-02-07T12:18:32.858Z,71.11
2023-02-07T12:21:08.729Z,71.78
2023-02-07T12:23:46.647Z,71.44
2023-02-07T12:26:22.482Z,71.54
2023-02-07T12:29:13.584Z,71.27
2023-02-07T12:31:55.772Z,71.73
2023-02-07T12:34:33.532Z,71.82
2023-02-07T12:37:13.478Z,71.78
2023-02-07T12:39:50.014Z,71.40
2023-02-07T12:42:34.526Z,71.19
2023-02-07T12:45:10.855Z,71.38
2023-02-07T12:47:51.625Z,71.17
2023-02-07T12:50:33.862Z,71.64
2023-02-07T12:53:20.136Z,72.40
2023-02-07T12:56:04.011Z,72.55
2023-02-07T12:58:49.832Z,72.20
2023-02-07T13:01:26.086Z,71.49
2023-02-07T13:04:21.543Z,71.18
2023-02-07T13:07:02.667Z,71.31
2023-02-07T13:09:39.046Z,71.07
2023-02-07T13:12:17.974Z,71.42
2023-02-07T13:15:02.109Z,71.51
2023-02-07T13:17:49.210Z,70.68
2023-02-07T13:20:35.550Z,70.92
2023-02-07T13:23:11.689Z,71.50
2023-02-07T13:25:44.874Z,72.00
2023-02-07T13:28:20.527Z,72.41
2023-02-07T13:30:51.942Z,72.13
2023-02-07T13:33:34.429Z,72.72
2023-02-07T13:36:14.554Z,72.95
2023-02-07T13:39:09.193Z,73.31
2023-02-07T13:41:50.874Z,73.18
2023-02-07T13:44:28.778Z,72.74
2023-02-07T13:47:43.804Z,73.05
2023-02-07T13:50:23.766Z,73.53
2023-02-07T13:53:04.405Z,73.46
2023-02-07T13:55:38.032Z,73.42
2023-02-07T13:58:47.578Z,73.44
2023-02-07T14:01:19.587Z,73.14
2023-02-07T14:04:05.045Z,72.68
2023-02-07T14:06:37.443Z,72.30
2023-02-07T14:09:18.118Z,73.06
2023-02-07T14:11:49.926Z,72.33
2023-02-07T14:14:27.473Z,73.00
2023-02-07T14:16:59.525Z,72.71
2023-02-07T14:19:52.302Z,72.62
2023-02-07T14:22:25.621Z,72.77
2023-02-07T14:25:24.705Z,72.96
2023-02-07T14:28:23.044Z,72.90
2023-02-07T14:31:12.349Z,73.29
2023-02-07T14:33:42.415Z,73.26
2023-02-07T14:36:29.902Z,73.33
2023-02-07T14:39:20.085Z,73.19
2023-02-07T14:41:53.492Z,73.33
2023-02-07T14:44:28.308Z,73.04
2023-02-07T14:47:00.570Z,73.06
2023-02-07T14:49:35.991Z,72.59
2023-02-07T14:52:08.689Z,72.83
2023-02-07T14:54:46.024Z,71.79
2023-02-07T14:57:34.631Z,71.28
2023-02-07T15:00:06.473Z,71.62
2023-02-07T15:02:41.357Z,72.26
2023-02-07T15:05:27.535Z,72.54
2023-02-07T15:08:07.749Z,72.60
2023-02-07T15:10:44.441Z,72.62
2023-02-07T15:13:28.842Z,72.36
2023-02-07T15:16:00.643Z,72.21
2023-02-07T15:18:34.503Z,72.26
2023-02-07T15:21:04.370Z,72.11
2023-02-07T15:23:34.520Z,72.01
2023-02-07T15:26:10.782Z,71.89
2023-02-07T15:28:42.669Z,71.69
2023-02-07T15:31:16.237Z,71.64
2023-02-07T15:33:52.420Z,71.63
2023-02-07T15:36:31.635Z,71.48
2023-02-07T15:39:04.009Z,71.64
2023-02-07T15:41:33.872Z,71.67
2023-02-07T15:44:05.036Z,72.01
2023-02-07T15:46:56.986Z,71.77
2023-02-07T15:49:37.304Z,71.82
2023-02-07T15:52:16.745Z,71.73
2023-02-07T15:54:49.035Z,71.78
2023-02-07T15:57:24.840Z,71.83
2023-02-07T15:59:57.353Z,71.72
2023-02-07T16:02:32.887Z,71.72
2023-02-07T16:05:10.579Z,71.79
2023-02-07T16:07:47.964Z,71.80
2023-02-07T16:10:20.568Z,71.88
2023-02-07T16:12:53.386Z,71.69
2023-02-07T16:15:32.156Z,71.68
2023-02-07T16:18:02.719Z,71.82
2023-02-07T16:20:35.494Z,71.65
2023-02-07T16:23:09.357Z,71.65
2023-02-07T16:25:39.376Z,71.72
2023-02-07T16:28:15.801Z,71.67
2023-02-07T16:30:46.802Z,71.70
2023-02-07T16:33:16.495Z,71.91
2023-02-07T16:35:45.953Z,71.82
2023-02-07T16:38:17.761Z,71.87
2023-02-07T16:40:47.291Z,71.93
2023-02-07T16:43:38.290Z,71.93
2023-02-07T16:46:09.310Z,71.68
2023-02-07T16:48:38.778Z,71.80
2023-02-07T16:51:08.091Z,71.79
2023-02-07T16:53:37.245Z,72.05
2023-02-07T16:56:07.059Z,71.92
2023-02-07T16:58:36.308Z,72.27
2023-02-07T17:01:06.461Z,72.10
2023-02-07T17:03:37.231Z,72.44
2023-02-07T17:06:10.469Z,72.40
2023-02-07T17:08:39.618Z,72.54
2023-02-07T17:11:14.847Z,72.77
2023-02-07T17:13:44.278Z,72.68
2023-02-07T17:16:15.068Z,72.76
2023-02-07T17:18:49.014Z,72.70
2023-02-07T17:21:18.682Z,72.86
2023-02-07T17:23:49.086Z,72.75
2023-02-07T17:26:24.637Z,72.62
2023-02-07T17:28:55.503Z,72.51
2023-02-07T17:31:26.876Z,72.50
2023-02-07T17:33:57.766Z,72.44
2023-02-07T17:36:29.334Z,72.12
2023-02-07T17:39:00.414Z,71.92
2023-02-07T17:41:34.490Z,71.83
2023-02-07T17:44:03.884Z,71.76
2023-02-07T17:46:34.574Z,71.72
2023-02-07T17:49:05.469Z,71.55
2023-02-07T17:51:35.354Z,71.39
2023-02-07T17:54:04.777Z,71.28
2023-02-07T17:56:34.834Z,71.45
2023-02-07T17:59:06.742Z,71.62
2023-02-07T18:01:36.977Z,71.66
2023-02-07T18:04:07.559Z,71.77
2023-02-07T18:06:37.471Z,71.62
2023-02-07T18:09:06.605Z,71.63
2023-02-07T18:11:36.139Z,71.75
2023-02-07T18:14:05.850Z,71.78
2023-02-07T18:16:35.168Z,72.03
2023-02-07T18:19:05.352Z,72.07
2023-02-07T18:21:38.701Z,72.15
2023-02-07T18:24:10.057Z,72.28
2023-02-07T18:26:39.548Z,72.46
2023-02-07T18:29:09.474Z,72.44
2023-02-07T18:31:39.803Z,72.46
2023-02-07T18:34:09.464Z,72.69
2023-02-07T18:36:41.650Z,72.67
2023-02-07T18:39:13.760Z,72.69
2023-02-07T18:41:47.017Z,72.99
2023-02-07T18:44:16.239Z,72.96
2023-02-07T18:46:45.560Z,73.00
2023-02-07T18:49:15.549Z,73.13
2023-02-07T18:51:48.155Z,73.49
2023-02-07T18:54:18.155Z,73.37
2023-02-07T18:56:52.176Z,73.34
2023-02-07T18:59:23.028Z,73.65
2023-02-07T19:01:56.163Z,73.40
2023-02-07T19:04:26.723Z,73.82
2023-02-07T19:06:59.873Z,73.85
2023-02-07T19:09:31.031Z,73.69
2023-02-07T19:12:00.573Z,73.70
2023-02-07T19:14:31.968Z,73.79
2023-02-07T19:17:03.495Z,73.65
2023-02-07T19:19:34.051Z,73.57
2023-02-07T19:22:05.595Z,73.76
2023-02-07T19:24:35.105Z,73.83
2023-02-07T19:27:05.612Z,73.80
2023-02-07T19:29:37.543Z,73.61
2023-02-07T19:32:08.926Z,73.54
2023-02-07T19:34:39.585Z,73.61
2023-02-07T19:37:10.573Z,73.70
2023-02-07T19:39:40.287Z,73.92
2023-02-07T19:42:09.689Z,73.93
2023-02-07T19:44:41.407Z,73.73
2023-02-07T19:47:12.383Z,73.83
2023-02-07T19:49:41.694Z,73.90
2023-02-07T19:52:12.594Z,74.00
2023-02-07T19:54:43.006Z,73.90
2023-02-07T19:57:12.840Z,73.69
2023-02-07T19:59:42.902Z,73.69
2023-02-07T20:02:16.548Z,73.59
2023-02-07T20:04:45.956Z,73.62
2023-02-07T20:07:17.167Z,73.79
2023-02-07T20:09:48.363Z,73.83
2023-02-07T20:12:18.319Z,73.89
2023-02-07T20:14:47.664Z,73.79
2023-02-07T20:17:17.191Z,73.85
2023-02-07T20:19:49.006Z,73.78
2023-02-07T20:22:20.121Z,73.77
2023-02-07T20:24:51.501Z,73.70
2023-02-07T20:27:21.116Z,73.38
2023-02-07T20:29:55.361Z,73.53
2023-02-07T20:32:25.306Z,73.54
2023-02-07T20:34:54.743Z,73.62
2023-02-07T20:37:25.723Z,73.59
2023-02-07T20:39:55.730Z,73.43
2023-02-07T20:42:25.295Z,73.53
2023-02-07T20:44:54.690Z,73.34
2023-02-07T20:47:24.170Z,73.28
2023-02-07T20:49:53.308Z,73.13
2023-02-07T20:52:24.292Z,72.92
2023-02-07T20:54:54.242Z,72.80
2023-02-07T20:57:23.930Z,72.65
2023-02-07T20:59:54.545Z,72.42
2023-02-07T21:02:24.240Z,72.47
2023-02-07T21:04:53.491Z,72.42
2023-02-07T21:07:25.060Z,72.35
2023-02-07T21:09:54.384Z,72.07
2023-02-07T21:12:23.778Z,72.05
2023-02-07T21:14:53.190Z,72.05
2023-02-07T21:17:22.557Z,72.06
2023-02-07T21:19:51.714Z,71.98
2023-02-07T21:22:23.183Z,72.08
2023-02-07T21:24:54.249Z,72.00
2023-02-07T21:27:23.725Z,71.88
2023-02-07T21:29:53.193Z,71.86
2023-02-07T21:32:22.881Z,71.79
2023-02-07T21:34:51.944Z,71.80
2023-02-07T21:37:21.685Z,72.12
2023-02-07T21:39:50.954Z,71.83
2023-02-07T21:42:21.862Z,71.95
2023-02-07T21:44:52.420Z,72.00
2023-02-07T21:47:22.071Z,71.80
2023-02-07T21:49:51.271Z,71.93
2023-02-07T21:52:20.590Z,71.98
2023-02-07T21:54:49.737Z,72.09
2023-02-07T21:57:20.470Z,72.14
2023-02-07T21:59:49.618Z,71.94
2023-02-07T22:02:19.000Z,72.14
2023-02-07T22:04:48.771Z,72.17
2023-02-07T22:07:18.079Z,72.20
2023-02-07T22:09:50.634Z,72.19
2023-02-07T22:12:21.484Z,72.32
2023-02-07T22:14:50.627Z,72.26
2023-02-07T22:17:20.224Z,72.36
2023-02-07T22:19:52.166Z,72.44
2023-02-07T22:22:21.621Z,72.69
2023-02-07T22:24:51.727Z,72.67
2023-02-07T22:27:22.555Z,72.68
2023-02-07T22:29:51.708Z,72.84
2023-02-07T22:32:21.196Z,72.89
2023-02-07T22:34:50.327Z,72.99
2023-02-07T22:37:19.663Z,73.07
2023-02-07T22:39:50.745Z,73.12
2023-02-07T22:42:21.584Z,73.23
2023-02-07T22:44:50.916Z,73.11
2023-02-07T22:47:20.254Z,73.15
2023-02-07T22:49:49.405Z,73.21
2023-02-07T22:52:18.831Z,73.27
2023-02-07T22:54:48.053Z,73.49
2023-02-07T22:57:17.547Z,73.35
2023-02-07T22:59:47.930Z,73.31
2023-02-07T23:02:17.403Z,73.45
2023-02-07T23:04:46.428Z,73.37
2023-02-07T23:07:15.941Z,73.43
2023-02-07T23:09:45.091Z,73.39
2023-02-07T23:12:15.849Z,73.51
2023-02-07T23:14:46.350Z,73.29
2023-02-07T23:17:16.280Z,73.63
2023-02-07T23:19:45.528Z,73.70
2023-02-07T23:22:14.840Z,73.48
2023-02-07T23:24:44.014Z,73.33
2023-02-07T23:27:13.969Z,73.48
2023-02-07T23:29:43.242Z,73.66
2023-02-07T23:32:16.527Z,73.60
2023-02-07T23:34:45.786Z,73.63
2023-02-07T23:37:15.175Z,73.53
2023-02-07T23:39:44.375Z,73.32
2023-02-07T23:42:14.140Z,73.61
2023-02-07T23:44:43.291Z,73.62
2023-02-07T23:47:14.378Z,73.74
2023-02-07T23:49:43.559Z,73.79
2023-02-07T23:52:13.397Z,73.68
2023-02-07T23:54:42.570Z,73.72
2023-02-07T23:57:11.876Z,73.56
2023-02-07T23:59:41.008Z,73.55
